Villa Nueva de Guaymallen, Argentina
Current Conditions -  °F | °C
As of 3:00 PM on Thursday 25 Dec 2014 (Local Time) from SAME Reporting Station
Few Clouds Few Clouds  
Wind Chill: 93°   Ceiling: Unl
Heat Index: 93°   Visibility: 6mi
Dew Point: 28°   Wind: 8mph
Humidity: 10%   Direction: 360°N
Pressure: 29.74"   Gusts: NA
Location:  32.9°S, 68.78°W
Report Text: SAME 251800Z 36007KT 9999 FEW045CU FEW050 34/M02 Q1007
Loading
Personal Weather Stations






























Interactive Weather Map New forecast layout! Learn more

10-Day Weather Forecast

Advertisements
Track Severe Weather on mobile